sensor_id;sensor_type;location;lat;lon;timestamp;P1;durP1;ratioP1;P2;durP2;ratioP2
18532;SDS011;9396;51.510;11.934;2022-10-31T00:02:21;9.47;;;6.80;;
18532;SDS011;9396;51.510;11.934;2022-10-31T00:04:47;12.57;;;7.17;;
18532;SDS011;9396;51.510;11.934;2022-10-31T00:07:14;11.53;;;6.30;;
18532;SDS011;9396;51.510;11.934;2022-10-31T00:09:41;12.17;;;7.43;;
18532;SDS011;9396;51.510;11.934;2022-10-31T00:12:07;11.80;;;7.47;;
18532;SDS011;9396;51.510;11.934;2022-10-31T00:14:35;10.23;;;6.97;;
18532;SDS011;9396;51.510;11.934;2022-10-31T00:17:02;10.93;;;6.53;;
18532;SDS011;9396;51.510;11.934;2022-10-31T00:19:28;10.17;;;6.83;;
18532;SDS011;9396;51.510;11.934;2022-10-31T00:21:55;8.90;;;6.60;;
18532;SDS011;9396;51.510;11.934;2022-10-31T00:24:22;12.53;;;6.70;;
18532;SDS011;9396;51.510;11.934;2022-10-31T00:26:48;11.60;;;6.60;;
18532;SDS011;9396;51.510;11.934;2022-10-31T00:29:15;14.77;;;6.93;;
18532;SDS011;9396;51.510;11.934;2022-10-31T00:31:43;10.53;;;5.83;;
18532;SDS011;9396;51.510;11.934;2022-10-31T00:34:09;18.97;;;6.87;;
18532;SDS011;9396;51.510;11.934;2022-10-31T00:36:36;13.13;;;7.40;;
18532;SDS011;9396;51.510;11.934;2022-10-31T00:39:03;11.37;;;7.30;;
18532;SDS011;9396;51.510;11.934;2022-10-31T00:41:29;10.03;;;6.97;;
18532;SDS011;9396;51.510;11.934;2022-10-31T00:43:56;12.47;;;7.60;;
18532;SDS011;9396;51.510;11.934;2022-10-31T00:46:23;11.50;;;7.87;;
18532;SDS011;9396;51.510;11.934;2022-10-31T00:48:51;12.93;;;7.37;;
18532;SDS011;9396;51.510;11.934;2022-10-31T00:51:17;15.10;;;7.63;;
18532;SDS011;9396;51.510;11.934;2022-10-31T00:53:44;15.00;;;8.03;;
18532;SDS011;9396;51.510;11.934;2022-10-31T00:56:11;19.27;;;7.77;;
18532;SDS011;9396;51.510;11.934;2022-10-31T00:58:37;11.80;;;7.60;;
18532;SDS011;9396;51.510;11.934;2022-10-31T01:01:04;11.50;;;7.37;;
18532;SDS011;9396;51.510;11.934;2022-10-31T01:03:32;14.43;;;7.50;;
18532;SDS011;9396;51.510;11.934;2022-10-31T01:06:02;12.70;;;7.77;;
18532;SDS011;9396;51.510;11.934;2022-10-31T01:08:30;11.13;;;7.93;;
18532;SDS011;9396;51.510;11.934;2022-10-31T01:10:58;11.43;;;8.10;;
18532;SDS011;9396;51.510;11.934;2022-10-31T01:13:26;10.87;;;7.27;;
18532;SDS011;9396;51.510;11.934;2022-10-31T01:15:53;12.00;;;7.20;;
18532;SDS011;9396;51.510;11.934;2022-10-31T01:18:20;15.90;;;7.80;;
18532;SDS011;9396;51.510;11.934;2022-10-31T01:20:48;11.47;;;6.93;;
18532;SDS011;9396;51.510;11.934;2022-10-31T01:23:24;12.80;;;6.67;;
18532;SDS011;9396;51.510;11.934;2022-10-31T01:25:58;11.97;;;6.90;;
18532;SDS011;9396;51.510;11.934;2022-10-31T01:28:26;14.57;;;7.47;;
18532;SDS011;9396;51.510;11.934;2022-10-31T01:30:52;13.53;;;6.80;;
18532;SDS011;9396;51.510;11.934;2022-10-31T01:33:19;11.10;;;6.70;;
18532;SDS011;9396;51.510;11.934;2022-10-31T01:35:45;9.43;;;6.23;;
18532;SDS011;9396;51.510;11.934;2022-10-31T01:38:12;13.17;;;6.53;;
18532;SDS011;9396;51.510;11.934;2022-10-31T01:40:40;9.63;;;6.10;;
18532;SDS011;9396;51.510;11.934;2022-10-31T01:43:09;9.40;;;5.90;;
18532;SDS011;9396;51.510;11.934;2022-10-31T01:45:37;8.70;;;6.43;;
18532;SDS011;9396;51.510;11.934;2022-10-31T01:48:04;12.60;;;7.00;;
18532;SDS011;9396;51.510;11.934;2022-10-31T01:50:32;10.00;;;6.63;;
18532;SDS011;9396;51.510;11.934;2022-10-31T01:53:02;10.10;;;6.53;;
18532;SDS011;9396;51.510;11.934;2022-10-31T01:55:33;11.00;;;6.57;;
18532;SDS011;9396;51.510;11.934;2022-10-31T01:58:04;10.93;;;7.67;;
18532;SDS011;9396;51.510;11.934;2022-10-31T02:00:35;12.93;;;7.40;;
18532;SDS011;9396;51.510;11.934;2022-10-31T02:03:03;12.37;;;7.23;;
18532;SDS011;9396;51.510;11.934;2022-10-31T02:05:30;11.80;;;7.20;;
18532;SDS011;9396;51.510;11.934;2022-10-31T02:07:59;10.50;;;6.97;;
18532;SDS011;9396;51.510;11.934;2022-10-31T02:10:30;9.93;;;6.50;;
18532;SDS011;9396;51.510;11.934;2022-10-31T02:13:00;10.30;;;6.53;;
18532;SDS011;9396;51.510;11.934;2022-10-31T02:15:31;15.03;;;6.90;;
18532;SDS011;9396;51.510;11.934;2022-10-31T02:17:58;8.40;;;6.13;;
18532;SDS011;9396;51.510;11.934;2022-10-31T02:20:27;10.83;;;6.27;;
18532;SDS011;9396;51.510;11.934;2022-10-31T02:23:05;10.20;;;6.80;;
18532;SDS011;9396;51.510;11.934;2022-10-31T02:25:53;12.93;;;6.70;;
18532;SDS011;9396;51.510;11.934;2022-10-31T02:28:49;13.00;;;6.47;;
18532;SDS011;9396;51.510;11.934;2022-10-31T02:31:31;13.23;;;6.67;;
18532;SDS011;9396;51.510;11.934;2022-10-31T02:34:08;12.70;;;7.03;;
18532;SDS011;9396;51.510;11.934;2022-10-31T02:36:40;11.20;;;6.23;;
18532;SDS011;9396;51.510;11.934;2022-10-31T02:39:12;10.30;;;6.03;;
18532;SDS011;9396;51.510;11.934;2022-10-31T02:41:48;11.43;;;6.37;;
18532;SDS011;9396;51.510;11.934;2022-10-31T02:44:22;12.20;;;6.80;;
18532;SDS011;9396;51.510;11.934;2022-10-31T02:46:58;9.07;;;6.20;;
18532;SDS011;9396;51.510;11.934;2022-10-31T02:49:29;11.67;;;6.17;;
18532;SDS011;9396;51.510;11.934;2022-10-31T02:52:01;9.00;;;6.10;;
18532;SDS011;9396;51.510;11.934;2022-10-31T02:54:28;10.30;;;6.07;;
18532;SDS011;9396;51.510;11.934;2022-10-31T02:56:58;8.23;;;5.53;;
18532;SDS011;9396;51.510;11.934;2022-10-31T02:59:28;12.50;;;5.77;;
18532;SDS011;9396;51.510;11.934;2022-10-31T03:02:04;10.03;;;5.23;;
18532;SDS011;9396;51.510;11.934;2022-10-31T03:04:54;14.57;;;5.37;;
18532;SDS011;9396;51.510;11.934;2022-10-31T03:07:43;12.40;;;5.90;;
18532;SDS011;9396;51.510;11.934;2022-10-31T03:10:19;8.77;;;5.70;;
18532;SDS011;9396;51.510;11.934;2022-10-31T03:12:54;9.30;;;5.77;;
18532;SDS011;9396;51.510;11.934;2022-10-31T03:15:29;8.40;;;5.83;;
18532;SDS011;9396;51.510;11.934;2022-10-31T03:18:00;10.27;;;6.00;;
18532;SDS011;9396;51.510;11.934;2022-10-31T03:20:32;14.60;;;6.97;;
18532;SDS011;9396;51.510;11.934;2022-10-31T03:23:04;10.20;;;5.90;;
18532;SDS011;9396;51.510;11.934;2022-10-31T03:25:34;12.70;;;6.17;;
18532;SDS011;9396;51.510;11.934;2022-10-31T03:28:03;13.10;;;6.60;;
18532;SDS011;9396;51.510;11.934;2022-10-31T03:30:33;11.03;;;6.73;;
18532;SDS011;9396;51.510;11.934;2022-10-31T03:33:06;13.23;;;6.20;;
18532;SDS011;9396;51.510;11.934;2022-10-31T03:35:36;12.07;;;6.33;;
18532;SDS011;9396;51.510;11.934;2022-10-31T03:38:06;8.43;;;6.30;;
18532;SDS011;9396;51.510;11.934;2022-10-31T03:40:35;10.70;;;6.60;;
18532;SDS011;9396;51.510;11.934;2022-10-31T03:43:06;10.60;;;6.40;;
18532;SDS011;9396;51.510;11.934;2022-10-31T03:45:39;10.23;;;6.10;;
18532;SDS011;9396;51.510;11.934;2022-10-31T03:48:11;10.77;;;6.17;;
18532;SDS011;9396;51.510;11.934;2022-10-31T03:50:40;8.43;;;5.87;;
18532;SDS011;9396;51.510;11.934;2022-10-31T03:53:13;7.83;;;6.30;;
18532;SDS011;9396;51.510;11.934;2022-10-31T03:55:46;8.80;;;5.37;;
18532;SDS011;9396;51.510;11.934;2022-10-31T03:58:18;11.97;;;6.60;;
18532;SDS011;9396;51.510;11.934;2022-10-31T04:00:48;7.27;;;6.17;;
18532;SDS011;9396;51.510;11.934;2022-10-31T04:03:20;13.77;;;5.47;;
18532;SDS011;9396;51.510;11.934;2022-10-31T04:05:50;9.87;;;5.63;;
18532;SDS011;9396;51.510;11.934;2022-10-31T04:08:21;11.03;;;6.37;;
18532;SDS011;9396;51.510;11.934;2022-10-31T04:10:52;8.90;;;5.53;;
18532;SDS011;9396;51.510;11.934;2022-10-31T04:13:21;9.93;;;5.60;;
18532;SDS011;9396;51.510;11.934;2022-10-31T04:15:52;12.67;;;5.70;;
18532;SDS011;9396;51.510;11.934;2022-10-31T04:18:23;8.33;;;5.13;;
18532;SDS011;9396;51.510;11.934;2022-10-31T04:20:58;11.80;;;6.10;;
18532;SDS011;9396;51.510;11.934;2022-10-31T04:23:26;8.67;;;5.70;;
18532;SDS011;9396;51.510;11.934;2022-10-31T04:25:53;14.63;;;6.60;;
18532;SDS011;9396;51.510;11.934;2022-10-31T04:28:20;8.00;;;6.23;;
18532;SDS011;9396;51.510;11.934;2022-10-31T04:30:46;9.33;;;5.80;;
18532;SDS011;9396;51.510;11.934;2022-10-31T04:33:13;12.47;;;6.40;;
18532;SDS011;9396;51.510;11.934;2022-10-31T04:35:41;16.30;;;6.90;;
18532;SDS011;9396;51.510;11.934;2022-10-31T04:38:08;10.40;;;6.20;;
18532;SDS011;9396;51.510;11.934;2022-10-31T04:40:34;11.13;;;6.13;;
18532;SDS011;9396;51.510;11.934;2022-10-31T04:43:01;14.60;;;5.63;;
18532;SDS011;9396;51.510;11.934;2022-10-31T04:45:27;7.33;;;5.73;;
18532;SDS011;9396;51.510;11.934;2022-10-31T04:47:54;8.77;;;5.73;;
18532;SDS011;9396;51.510;11.934;2022-10-31T04:50:21;10.03;;;6.07;;
18532;SDS011;9396;51.510;11.934;2022-10-31T04:52:48;6.90;;;5.80;;
18532;SDS011;9396;51.510;11.934;2022-10-31T04:55:15;11.87;;;6.63;;
18532;SDS011;9396;51.510;11.934;2022-10-31T04:57:42;10.77;;;6.27;;
18532;SDS011;9396;51.510;11.934;2022-10-31T05:00:09;12.53;;;5.83;;
18532;SDS011;9396;51.510;11.934;2022-10-31T05:02:42;11.63;;;6.47;;
18532;SDS011;9396;51.510;11.934;2022-10-31T05:05:09;11.77;;;6.50;;
18532;SDS011;9396;51.510;11.934;2022-10-31T05:07:37;12.17;;;6.77;;
18532;SDS011;9396;51.510;11.934;2022-10-31T05:10:07;12.40;;;6.63;;
18532;SDS011;9396;51.510;11.934;2022-10-31T05:12:35;9.17;;;6.30;;
18532;SDS011;9396;51.510;11.934;2022-10-31T05:15:02;8.67;;;6.00;;
18532;SDS011;9396;51.510;11.934;2022-10-31T05:17:30;12.80;;;6.20;;
18532;SDS011;9396;51.510;11.934;2022-10-31T05:19:57;9.33;;;6.03;;
18532;SDS011;9396;51.510;11.934;2022-10-31T05:22:23;9.40;;;5.97;;
18532;SDS011;9396;51.510;11.934;2022-10-31T05:24:50;8.37;;;6.13;;
18532;SDS011;9396;51.510;11.934;2022-10-31T05:27:18;12.83;;;6.73;;
18532;SDS011;9396;51.510;11.934;2022-10-31T05:29:44;9.77;;;5.53;;
18532;SDS011;9396;51.510;11.934;2022-10-31T05:32:11;10.70;;;5.87;;
18532;SDS011;9396;51.510;11.934;2022-10-31T05:34:37;12.50;;;6.60;;
18532;SDS011;9396;51.510;11.934;2022-10-31T05:37:04;10.47;;;6.00;;
18532;SDS011;9396;51.510;11.934;2022-10-31T05:39:31;11.43;;;6.10;;
18532;SDS011;9396;51.510;11.934;2022-10-31T05:41:57;9.10;;;5.90;;
18532;SDS011;9396;51.510;11.934;2022-10-31T05:44:25;11.83;;;6.23;;
18532;SDS011;9396;51.510;11.934;2022-10-31T05:46:52;10.77;;;5.97;;
18532;SDS011;9396;51.510;11.934;2022-10-31T05:49:18;12.77;;;5.63;;
18532;SDS011;9396;51.510;11.934;2022-10-31T05:51:45;8.97;;;5.40;;
18532;SDS011;9396;51.510;11.934;2022-10-31T05:54:12;8.23;;;5.47;;
18532;SDS011;9396;51.510;11.934;2022-10-31T05:56:38;8.80;;;5.27;;
18532;SDS011;9396;51.510;11.934;2022-10-31T05:59:05;9.00;;;5.77;;
18532;SDS011;9396;51.510;11.934;2022-10-31T06:01:33;6.43;;;4.97;;
18532;SDS011;9396;51.510;11.934;2022-10-31T06:03:59;7.70;;;5.40;;
18532;SDS011;9396;51.510;11.934;2022-10-31T06:06:26;10.00;;;5.67;;
18532;SDS011;9396;51.510;11.934;2022-10-31T06:08:53;9.03;;;5.97;;
18532;SDS011;9396;51.510;11.934;2022-10-31T06:11:19;7.77;;;5.63;;
18532;SDS011;9396;51.510;11.934;2022-10-31T06:13:46;9.70;;;5.57;;
18532;SDS011;9396;51.510;11.934;2022-10-31T06:16:12;6.77;;;5.10;;
18532;SDS011;9396;51.510;11.934;2022-10-31T06:18:40;8.27;;;5.70;;
18532;SDS011;9396;51.510;11.934;2022-10-31T06:21:07;9.47;;;6.07;;
18532;SDS011;9396;51.510;11.934;2022-10-31T06:23:34;10.07;;;6.10;;
18532;SDS011;9396;51.510;11.934;2022-10-31T06:26:00;7.73;;;5.60;;
18532;SDS011;9396;51.510;11.934;2022-10-31T06:28:27;10.73;;;6.80;;
18532;SDS011;9396;51.510;11.934;2022-10-31T06:30:53;12.37;;;5.77;;
18532;SDS011;9396;51.510;11.934;2022-10-31T06:33:20;9.87;;;6.20;;
18532;SDS011;9396;51.510;11.934;2022-10-31T06:35:48;14.47;;;5.97;;
18532;SDS011;9396;51.510;11.934;2022-10-31T06:38:14;8.93;;;5.80;;
18532;SDS011;9396;51.510;11.934;2022-10-31T06:40:41;8.80;;;5.60;;
18532;SDS011;9396;51.510;11.934;2022-10-31T06:43:08;7.17;;;5.37;;
18532;SDS011;9396;51.510;11.934;2022-10-31T06:45:36;7.93;;;5.50;;
18532;SDS011;9396;51.510;11.934;2022-10-31T06:48:03;9.93;;;6.37;;
18532;SDS011;9396;51.510;11.934;2022-10-31T06:50:30;10.37;;;5.70;;
18532;SDS011;9396;51.510;11.934;2022-10-31T06:52:58;10.13;;;5.93;;
18532;SDS011;9396;51.510;11.934;2022-10-31T06:55:25;8.70;;;5.57;;
18532;SDS011;9396;51.510;11.934;2022-10-31T06:57:53;13.53;;;6.30;;
18532;SDS011;9396;51.510;11.934;2022-10-31T07:00:20;8.40;;;5.47;;
18532;SDS011;9396;51.510;11.934;2022-10-31T07:02:53;7.20;;;5.43;;
18532;SDS011;9396;51.510;11.934;2022-10-31T07:05:21;9.13;;;5.90;;
18532;SDS011;9396;51.510;11.934;2022-10-31T07:07:47;8.27;;;5.80;;
18532;SDS011;9396;51.510;11.934;2022-10-31T07:10:19;13.60;;;6.47;;
18532;SDS011;9396;51.510;11.934;2022-10-31T07:12:46;8.90;;;6.33;;
18532;SDS011;9396;51.510;11.934;2022-10-31T07:15:12;11.00;;;6.53;;
18532;SDS011;9396;51.510;11.934;2022-10-31T07:17:39;9.33;;;6.03;;
18532;SDS011;9396;51.510;11.934;2022-10-31T07:20:06;11.33;;;6.07;;
18532;SDS011;9396;51.510;11.934;2022-10-31T07:22:34;12.07;;;6.20;;
18532;SDS011;9396;51.510;11.934;2022-10-31T07:25:01;12.17;;;5.67;;
18532;SDS011;9396;51.510;11.934;2022-10-31T07:27:34;11.07;;;6.57;;
18532;SDS011;9396;51.510;11.934;2022-10-31T07:30:01;7.80;;;6.33;;
18532;SDS011;9396;51.510;11.934;2022-10-31T07:32:36;7.83;;;5.77;;
18532;SDS011;9396;51.510;11.934;2022-10-31T07:35:03;8.40;;;5.83;;
18532;SDS011;9396;51.510;11.934;2022-10-31T07:37:30;8.17;;;6.03;;
18532;SDS011;9396;51.510;11.934;2022-10-31T07:39:57;10.77;;;6.87;;
18532;SDS011;9396;51.510;11.934;2022-10-31T07:42:23;14.00;;;7.57;;
18532;SDS011;9396;51.510;11.934;2022-10-31T07:44:51;10.30;;;6.30;;
18532;SDS011;9396;51.510;11.934;2022-10-31T07:47:18;7.10;;;6.37;;
18532;SDS011;9396;51.510;11.934;2022-10-31T07:49:45;8.40;;;5.30;;
18532;SDS011;9396;51.510;11.934;2022-10-31T07:52:11;11.10;;;6.30;;
18532;SDS011;9396;51.510;11.934;2022-10-31T07:54:38;9.17;;;6.20;;
18532;SDS011;9396;51.510;11.934;2022-10-31T07:57:04;9.93;;;6.80;;
18532;SDS011;9396;51.510;11.934;2022-10-31T07:59:31;7.43;;;6.20;;
18532;SDS011;9396;51.510;11.934;2022-10-31T08:01:59;10.53;;;6.43;;
18532;SDS011;9396;51.510;11.934;2022-10-31T08:04:25;11.67;;;7.20;;
18532;SDS011;9396;51.510;11.934;2022-10-31T08:06:52;10.37;;;6.87;;
18532;SDS011;9396;51.510;11.934;2022-10-31T08:09:19;7.77;;;6.47;;
18532;SDS011;9396;51.510;11.934;2022-10-31T08:11:45;11.33;;;6.70;;
18532;SDS011;9396;51.510;11.934;2022-10-31T08:14:12;8.23;;;6.40;;
18532;SDS011;9396;51.510;11.934;2022-10-31T08:16:38;7.90;;;6.07;;
18532;SDS011;9396;51.510;11.934;2022-10-31T08:19:06;10.90;;;6.03;;
18532;SDS011;9396;51.510;11.934;2022-10-31T08:21:33;11.50;;;6.27;;
18532;SDS011;9396;51.510;11.934;2022-10-31T08:23:59;8.10;;;5.90;;
18532;SDS011;9396;51.510;11.934;2022-10-31T08:26:26;9.00;;;6.17;;
18532;SDS011;9396;51.510;11.934;2022-10-31T08:28:53;10.83;;;6.07;;
18532;SDS011;9396;51.510;11.934;2022-10-31T08:31:19;11.07;;;5.40;;
18532;SDS011;9396;51.510;11.934;2022-10-31T08:33:46;13.07;;;6.80;;
18532;SDS011;9396;51.510;11.934;2022-10-31T08:36:14;9.60;;;6.03;;
18532;SDS011;9396;51.510;11.934;2022-10-31T08:38:41;10.90;;;6.33;;
18532;SDS011;9396;51.510;11.934;2022-10-31T08:41:07;8.93;;;6.30;;
18532;SDS011;9396;51.510;11.934;2022-10-31T08:43:34;9.37;;;6.10;;
18532;SDS011;9396;51.510;11.934;2022-10-31T08:46:00;10.93;;;5.77;;
18532;SDS011;9396;51.510;11.934;2022-10-31T08:48:27;10.33;;;7.27;;
18532;SDS011;9396;51.510;11.934;2022-10-31T08:50:55;14.17;;;7.10;;
18532;SDS011;9396;51.510;11.934;2022-10-31T08:53:24;12.87;;;8.23;;
18532;SDS011;9396;51.510;11.934;2022-10-31T08:55:53;13.13;;;6.87;;
18532;SDS011;9396;51.510;11.934;2022-10-31T08:58:21;11.47;;;7.03;;
18532;SDS011;9396;51.510;11.934;2022-10-31T09:00:49;9.67;;;6.50;;
18532;SDS011;9396;51.510;11.934;2022-10-31T09:03:17;14.07;;;7.60;;
18532;SDS011;9396;51.510;11.934;2022-10-31T09:05:45;15.47;;;7.47;;
18532;SDS011;9396;51.510;11.934;2022-10-31T09:08:12;13.33;;;7.50;;
18532;SDS011;9396;51.510;11.934;2022-10-31T09:10:40;13.90;;;8.13;;
18532;SDS011;9396;51.510;11.934;2022-10-31T09:13:10;13.10;;;7.87;;
18532;SDS011;9396;51.510;11.934;2022-10-31T09:15:38;17.03;;;7.73;;
18532;SDS011;9396;51.510;11.934;2022-10-31T09:18:06;14.17;;;8.43;;
18532;SDS011;9396;51.510;11.934;2022-10-31T09:20:34;16.43;;;9.33;;
18532;SDS011;9396;51.510;11.934;2022-10-31T09:23:03;21.10;;;9.67;;
18532;SDS011;9396;51.510;11.934;2022-10-31T09:25:32;19.20;;;10.90;;
18532;SDS011;9396;51.510;11.934;2022-10-31T09:28:00;16.40;;;10.17;;
18532;SDS011;9396;51.510;11.934;2022-10-31T09:30:29;20.77;;;10.93;;
18532;SDS011;9396;51.510;11.934;2022-10-31T09:32:58;18.53;;;11.33;;
18532;SDS011;9396;51.510;11.934;2022-10-31T09:35:26;17.50;;;10.73;;
18532;SDS011;9396;51.510;11.934;2022-10-31T09:37:54;19.80;;;11.20;;
18532;SDS011;9396;51.510;11.934;2022-10-31T09:40:21;25.10;;;14.50;;
18532;SDS011;9396;51.510;11.934;2022-10-31T09:42:51;27.20;;;16.20;;
18532;SDS011;9396;51.510;11.934;2022-10-31T09:45:28;28.47;;;15.90;;
18532;SDS011;9396;51.510;11.934;2022-10-31T09:48:08;34.70;;;16.40;;
18532;SDS011;9396;51.510;11.934;2022-10-31T09:50:44;28.97;;;16.43;;
18532;SDS011;9396;51.510;11.934;2022-10-31T09:53:17;30.00;;;16.20;;
18532;SDS011;9396;51.510;11.934;2022-10-31T09:55:51;30.07;;;16.60;;
18532;SDS011;9396;51.510;11.934;2022-10-31T09:58:20;29.73;;;17.07;;
18532;SDS011;9396;51.510;11.934;2022-10-31T10:00:52;31.20;;;17.03;;
18532;SDS011;9396;51.510;11.934;2022-10-31T10:03:24;20.87;;;12.03;;
18532;SDS011;9396;51.510;11.934;2022-10-31T10:05:58;34.93;;;17.27;;
18532;SDS011;9396;51.510;11.934;2022-10-31T10:08:33;29.43;;;16.27;;
18532;SDS011;9396;51.510;11.934;2022-10-31T10:11:04;28.77;;;16.33;;
18532;SDS011;9396;51.510;11.934;2022-10-31T10:13:50;35.63;;;17.30;;
18532;SDS011;9396;51.510;11.934;2022-10-31T10:16:31;36.93;;;17.80;;
18532;SDS011;9396;51.510;11.934;2022-10-31T10:19:10;29.50;;;17.33;;
18532;SDS011;9396;51.510;11.934;2022-10-31T10:21:51;32.67;;;17.23;;
18532;SDS011;9396;51.510;11.934;2022-10-31T10:24:29;31.80;;;18.10;;
18532;SDS011;9396;51.510;11.934;2022-10-31T10:27:05;35.70;;;17.97;;
18532;SDS011;9396;51.510;11.934;2022-10-31T10:29:42;37.70;;;18.63;;
18532;SDS011;9396;51.510;11.934;2022-10-31T10:32:17;33.33;;;18.80;;
18532;SDS011;9396;51.510;11.934;2022-10-31T10:34:49;36.23;;;19.13;;
18532;SDS011;9396;51.510;11.934;2022-10-31T10:37:21;32.97;;;18.50;;
18532;SDS011;9396;51.510;11.934;2022-10-31T10:39:52;35.90;;;18.50;;
18532;SDS011;9396;51.510;11.934;2022-10-31T10:42:23;36.27;;;20.00;;
18532;SDS011;9396;51.510;11.934;2022-10-31T10:45:13;37.57;;;20.13;;
18532;SDS011;9396;51.510;11.934;2022-10-31T10:48:03;42.53;;;21.60;;
18532;SDS011;9396;51.510;11.934;2022-10-31T10:50:39;45.53;;;21.47;;
18532;SDS011;9396;51.510;11.934;2022-10-31T10:53:14;42.17;;;21.77;;
18532;SDS011;9396;51.510;11.934;2022-10-31T10:55:58;40.87;;;22.40;;
18532;SDS011;9396;51.510;11.934;2022-10-31T10:58:28;40.67;;;23.17;;
18532;SDS011;9396;51.510;11.934;2022-10-31T11:00:55;44.70;;;22.93;;
18532;SDS011;9396;51.510;11.934;2022-10-31T11:03:23;38.63;;;21.60;;
18532;SDS011;9396;51.510;11.934;2022-10-31T11:05:50;41.37;;;22.47;;
18532;SDS011;9396;51.510;11.934;2022-10-31T11:08:24;48.87;;;23.50;;
18532;SDS011;9396;51.510;11.934;2022-10-31T11:10:56;44.87;;;25.17;;
18532;SDS011;9396;51.510;11.934;2022-10-31T11:13:28;44.13;;;23.50;;
18532;SDS011;9396;51.510;11.934;2022-10-31T11:15:58;47.17;;;24.67;;
18532;SDS011;9396;51.510;11.934;2022-10-31T11:18:29;48.00;;;24.60;;
18532;SDS011;9396;51.510;11.934;2022-10-31T11:20:59;41.47;;;23.53;;
18532;SDS011;9396;51.510;11.934;2022-10-31T11:23:28;50.07;;;24.33;;
18532;SDS011;9396;51.510;11.934;2022-10-31T11:25:56;44.43;;;23.40;;
18532;SDS011;9396;51.510;11.934;2022-10-31T11:28:25;50.53;;;25.87;;
18532;SDS011;9396;51.510;11.934;2022-10-31T11:30:55;52.47;;;24.73;;
18532;SDS011;9396;51.510;11.934;2022-10-31T11:33:24;44.63;;;23.70;;
18532;SDS011;9396;51.510;11.934;2022-10-31T11:35:57;45.50;;;24.93;;
18532;SDS011;9396;51.510;11.934;2022-10-31T11:38:29;42.23;;;23.67;;
18532;SDS011;9396;51.510;11.934;2022-10-31T11:40:59;46.83;;;24.47;;
18532;SDS011;9396;51.510;11.934;2022-10-31T11:43:34;41.50;;;22.83;;
18532;SDS011;9396;51.510;11.934;2022-10-31T11:46:08;43.47;;;23.93;;
18532;SDS011;9396;51.510;11.934;2022-10-31T11:48:37;40.27;;;22.73;;
18532;SDS011;9396;51.510;11.934;2022-10-31T11:51:04;39.67;;;22.37;;
18532;SDS011;9396;51.510;11.934;2022-10-31T11:53:32;49.37;;;23.17;;
18532;SDS011;9396;51.510;11.934;2022-10-31T11:56:04;39.57;;;23.30;;
18532;SDS011;9396;51.510;11.934;2022-10-31T11:58:36;41.47;;;22.50;;
18532;SDS011;9396;51.510;11.934;2022-10-31T12:01:03;46.37;;;23.13;;
18532;SDS011;9396;51.510;11.934;2022-10-31T12:03:33;44.57;;;22.07;;
18532;SDS011;9396;51.510;11.934;2022-10-31T12:06:10;39.53;;;21.53;;
18532;SDS011;9396;51.510;11.934;2022-10-31T12:08:42;35.50;;;20.67;;
18532;SDS011;9396;51.510;11.934;2022-10-31T12:11:11;40.30;;;20.77;;
18532;SDS011;9396;51.510;11.934;2022-10-31T12:13:51;41.00;;;20.93;;
18532;SDS011;9396;51.510;11.934;2022-10-31T12:16:31;38.27;;;20.37;;
18532;SDS011;9396;51.510;11.934;2022-10-31T12:19:04;38.57;;;19.73;;
18532;SDS011;9396;51.510;11.934;2022-10-31T12:21:41;40.17;;;21.53;;
18532;SDS011;9396;51.510;11.934;2022-10-31T12:24:32;34.13;;;20.17;;
18532;SDS011;9396;51.510;11.934;2022-10-31T12:27:12;34.80;;;19.80;;
18532;SDS011;9396;51.510;11.934;2022-10-31T12:32:41;38.10;;;21.10;;
18532;SDS011;9396;51.510;11.934;2022-10-31T12:35:29;40.83;;;21.90;;
18532;SDS011;9396;51.510;11.934;2022-10-31T12:38:06;44.07;;;21.07;;
18532;SDS011;9396;51.510;11.934;2022-10-31T12:40:59;38.93;;;21.50;;
18532;SDS011;9396;51.510;11.934;2022-10-31T12:43:38;41.27;;;22.67;;
18532;SDS011;9396;51.510;11.934;2022-10-31T12:46:13;40.13;;;21.03;;
18532;SDS011;9396;51.510;11.934;2022-10-31T12:51:47;39.43;;;21.60;;
18532;SDS011;9396;51.510;11.934;2022-10-31T12:54:25;43.23;;;21.83;;
18532;SDS011;9396;51.510;11.934;2022-10-31T12:57:18;45.43;;;23.23;;
18532;SDS011;9396;51.510;11.934;2022-10-31T12:59:51;39.10;;;21.27;;
18532;SDS011;9396;51.510;11.934;2022-10-31T13:02:20;42.90;;;22.13;;
18532;SDS011;9396;51.510;11.934;2022-10-31T13:04:51;44.87;;;21.87;;
18532;SDS011;9396;51.510;11.934;2022-10-31T13:07:24;43.23;;;22.97;;
18532;SDS011;9396;51.510;11.934;2022-10-31T13:09:56;38.90;;;22.63;;
18532;SDS011;9396;51.510;11.934;2022-10-31T13:12:27;35.60;;;20.47;;
18532;SDS011;9396;51.510;11.934;2022-10-31T13:14:56;43.30;;;21.40;;
18532;SDS011;9396;51.510;11.934;2022-10-31T13:17:30;42.67;;;23.03;;
18532;SDS011;9396;51.510;11.934;2022-10-31T13:20:05;39.40;;;23.10;;
18532;SDS011;9396;51.510;11.934;2022-10-31T13:22:48;42.97;;;21.37;;
18532;SDS011;9396;51.510;11.934;2022-10-31T13:25:18;42.00;;;24.23;;
18532;SDS011;9396;51.510;11.934;2022-10-31T13:27:48;48.40;;;23.87;;
18532;SDS011;9396;51.510;11.934;2022-10-31T13:30:19;42.40;;;23.20;;
18532;SDS011;9396;51.510;11.934;2022-10-31T13:32:48;41.07;;;23.27;;
18532;SDS011;9396;51.510;11.934;2022-10-31T13:35:21;43.57;;;22.97;;
18532;SDS011;9396;51.510;11.934;2022-10-31T13:38:00;43.00;;;22.93;;
18532;SDS011;9396;51.510;11.934;2022-10-31T13:40:38;41.53;;;23.53;;
18532;SDS011;9396;51.510;11.934;2022-10-31T13:43:18;41.07;;;23.27;;
18532;SDS011;9396;51.510;11.934;2022-10-31T13:45:52;39.00;;;22.53;;
18532;SDS011;9396;51.510;11.934;2022-10-31T13:48:33;46.07;;;24.60;;
18532;SDS011;9396;51.510;11.934;2022-10-31T13:51:06;50.80;;;24.07;;
18532;SDS011;9396;51.510;11.934;2022-10-31T13:53:41;52.23;;;24.83;;
18532;SDS011;9396;51.510;11.934;2022-10-31T13:56:14;41.30;;;23.73;;
18532;SDS011;9396;51.510;11.934;2022-10-31T13:58:55;40.50;;;22.33;;
18532;SDS011;9396;51.510;11.934;2022-10-31T14:01:46;47.50;;;24.80;;
18532;SDS011;9396;51.510;11.934;2022-10-31T14:04:15;47.90;;;25.03;;
18532;SDS011;9396;51.510;11.934;2022-10-31T14:06:46;45.40;;;23.90;;
18532;SDS011;9396;51.510;11.934;2022-10-31T14:09:22;52.63;;;24.87;;
18532;SDS011;9396;51.510;11.934;2022-10-31T14:11:52;48.03;;;23.90;;
18532;SDS011;9396;51.510;11.934;2022-10-31T14:14:19;43.87;;;23.60;;
18532;SDS011;9396;51.510;11.934;2022-10-31T14:16:53;50.77;;;23.87;;
18532;SDS011;9396;51.510;11.934;2022-10-31T14:19:22;47.37;;;24.10;;
18532;SDS011;9396;51.510;11.934;2022-10-31T14:21:49;52.53;;;24.27;;
18532;SDS011;9396;51.510;11.934;2022-10-31T14:24:32;50.07;;;24.37;;
18532;SDS011;9396;51.510;11.934;2022-10-31T14:27:01;47.07;;;23.67;;
18532;SDS011;9396;51.510;11.934;2022-10-31T14:29:30;48.13;;;24.07;;
18532;SDS011;9396;51.510;11.934;2022-10-31T14:31:59;51.60;;;24.53;;
18532;SDS011;9396;51.510;11.934;2022-10-31T14:34:36;48.20;;;24.23;;
18532;SDS011;9396;51.510;11.934;2022-10-31T14:37:25;52.87;;;24.00;;
18532;SDS011;9396;51.510;11.934;2022-10-31T14:40:04;49.67;;;24.77;;
18532;SDS011;9396;51.510;11.934;2022-10-31T14:42:47;50.87;;;24.40;;
18532;SDS011;9396;51.510;11.934;2022-10-31T14:45:25;57.73;;;25.23;;
18532;SDS011;9396;51.510;11.934;2022-10-31T14:48:11;46.63;;;24.07;;
18532;SDS011;9396;51.510;11.934;2022-10-31T14:50:48;47.03;;;25.20;;
18532;SDS011;9396;51.510;11.934;2022-10-31T14:53:19;46.03;;;24.13;;
18532;SDS011;9396;51.510;11.934;2022-10-31T14:55:51;42.80;;;23.80;;
18532;SDS011;9396;51.510;11.934;2022-10-31T14:58:20;51.03;;;24.83;;
18532;SDS011;9396;51.510;11.934;2022-10-31T15:00:50;47.70;;;25.13;;